메인 페이지
METAR-TAF:

METAR-TAF

공항 :

Lossiemouth, 스코틀랜드

위도: 57-43N, 경도: 003-19W, 고도: 13m

현재 날씨관측

예보는 25분 전, 11:50시(UTC)에 발표되었습니다.
동북동7kt
온도 18°C
습도 68%
기압 1015 hPa
시정 10km 이상
1500m 미만 상공 구름 및 적란운 없음

METAR: EGQS 241150Z 07007KT CAVOK 18/12 Q1015 NOSIG RMK BLU BLU

시각: 13:15 (12:15 UTC)

예보

예보는 1 시간 41분 전, 10:34시(UTC)에 발표되었습니다.
예보 대상 시간: 24일 12시부터 25일 06시까지 (UTC)
동북동10kt
시정 10km 이상
1500m 미만 상공 구름 및 적란운 없음
확률 30% :
일시적
25일 01시부터 25일 05시까지 (UTC)
고도 2200ft 상공 구름 보통

TAF: EGQS 241034Z 2412/2506 06010KT CAVOK PROB30 TEMPO 2501/2505 SCT022

4,000개 이상의 공항 관측 자료 및 예보 (METAR 및 TAF 보고).

지도상에서 검색 가능한 기상관측소가 노란 점과 빨간 점으로 표시되어 있습니다.

기상관측소 명을 보려면 표시 위로 마우스를 이동하세요.

날씨 관측과 예보를 보려면 클릭하세요.

지도 변경 : 확대하려면 엑스 표시가 있는 녹색 버튼, 축소하려면 빼기 표시가 있는 녹색 버튼, 다음 페이지의 지도를 보려면 녹색 화살표를 클릭하세요.


METAR-TAF: